Huvudsida
METAR-TAF:

METAR-TAF

Flygplatser :

Ivalos flygplats

Ivalo, Finland

latitud: 68-37N, longitud: 027-25E, höjd: 147 m

Aktuellt väderrapport

Denna rapport gjordes för 17 minuter sedan, klockan 07:50 UTC
Vind 4 kt från sydväst
Temperatur -4°C
Fuktighet 93%
Tryck 986 hPa
Sikt 10 km eller mer
Inga moln under 1 500 m eller inga cumulonimbus

METAR: EFIV 230750Z AUTO 22004KT CAVOK M04/M05 Q0986

Tid: 11:07 (08:07 UTC)

Väderprognos

Denna rapport gjordes för 2 timmar och 44 minuter sedan, klockan 05:23 UTC
Prognos gäller från 23 kl. 06 UTC till 23 kl. 11 UTC
Vind 8 kt från sydväst
Sikt 10 km eller mer
Inga moln under 1 500 m eller inga cumulonimbus

TAF: EFIV 230523Z 2306/2311 22008KT CAVOK

Aktuella väderrapporter och prognoser från 4000 flygplatser (METAR- och TAF-rapporter).

De tillgängliga stationerna syns som gula och röda prickar på kartan.

För musen över prickarna för att se namnen på stationerna.

Klicka sedan för att få väderrapporter och prognoser.

För att ändra kartan: Klicka på de gröna knapparna med ett svart kors på för att zooma in; den gröna knappen med ett streck på för att zooma ut; eller på de gröna pilarna för angränsande kartor.


METAR-TAF: